sensor_id;sensor_type;location;lat;lon;timestamp;temperature;humidity
18450;DHT22;9354;50.194;7.690;2023-12-29T00:01:36;8.70;99.90
18450;DHT22;9354;50.194;7.690;2023-12-29T00:04:04;8.70;99.90
18450;DHT22;9354;50.194;7.690;2023-12-29T00:06:32;8.70;99.90
18450;DHT22;9354;50.194;7.690;2023-12-29T00:08:59;8.70;99.90
18450;DHT22;9354;50.194;7.690;2023-12-29T00:11:27;8.70;99.90
18450;DHT22;9354;50.194;7.690;2023-12-29T00:13:54;8.70;99.90
18450;DHT22;9354;50.194;7.690;2023-12-29T00:16:21;8.70;99.90
18450;DHT22;9354;50.194;7.690;2023-12-29T00:18:49;8.60;99.90
18450;DHT22;9354;50.194;7.690;2023-12-29T00:21:18;8.60;99.90
18450;DHT22;9354;50.194;7.690;2023-12-29T00:23:45;8.60;99.90
18450;DHT22;9354;50.194;7.690;2023-12-29T00:26:12;8.60;99.90
18450;DHT22;9354;50.194;7.690;2023-12-29T00:28:40;8.60;99.90
18450;DHT22;9354;50.194;7.690;2023-12-29T00:31:07;8.60;99.90
18450;DHT22;9354;50.194;7.690;2023-12-29T00:33:35;8.60;99.90
18450;DHT22;9354;50.194;7.690;2023-12-29T00:36:03;8.60;99.90
18450;DHT22;9354;50.194;7.690;2023-12-29T00:38:32;8.60;99.90
18450;DHT22;9354;50.194;7.690;2023-12-29T00:40:59;8.60;99.90
18450;DHT22;9354;50.194;7.690;2023-12-29T00:43:27;8.60;99.90
18450;DHT22;9354;50.194;7.690;2023-12-29T00:45:54;8.60;99.90
18450;DHT22;9354;50.194;7.690;2023-12-29T00:48:21;8.60;99.90
18450;DHT22;9354;50.194;7.690;2023-12-29T00:50:49;8.60;99.90
18450;DHT22;9354;50.194;7.690;2023-12-29T00:53:16;8.60;99.90
18450;DHT22;9354;50.194;7.690;2023-12-29T00:55:45;8.70;99.90
18450;DHT22;9354;50.194;7.690;2023-12-29T00:58:12;8.70;99.90
18450;DHT22;9354;50.194;7.690;2023-12-29T01:00:40;8.70;99.90
18450;DHT22;9354;50.194;7.690;2023-12-29T01:03:07;8.70;99.90
18450;DHT22;9354;50.194;7.690;2023-12-29T01:05:35;8.70;99.90
18450;DHT22;9354;50.194;7.690;2023-12-29T01:08:02;8.70;99.90
18450;DHT22;9354;50.194;7.690;2023-12-29T01:10:30;8.80;99.90
18450;DHT22;9354;50.194;7.690;2023-12-29T01:12:58;8.80;99.90
18450;DHT22;9354;50.194;7.690;2023-12-29T01:15:26;8.80;99.90
18450;DHT22;9354;50.194;7.690;2023-12-29T01:17:54;8.80;99.90
18450;DHT22;9354;50.194;7.690;2023-12-29T01:20:22;8.80;99.90
18450;DHT22;9354;50.194;7.690;2023-12-29T01:22:49;8.90;99.90
18450;DHT22;9354;50.194;7.690;2023-12-29T01:25:16;8.90;99.90
18450;DHT22;9354;50.194;7.690;2023-12-29T01:27:44;8.90;99.90
18450;DHT22;9354;50.194;7.690;2023-12-29T01:30:13;8.90;99.90
18450;DHT22;9354;50.194;7.690;2023-12-29T01:32:40;8.90;99.90
18450;DHT22;9354;50.194;7.690;2023-12-29T01:35:08;8.90;99.90
18450;DHT22;9354;50.194;7.690;2023-12-29T01:37:35;8.90;99.90
18450;DHT22;9354;50.194;7.690;2023-12-29T01:40:03;8.90;99.90
18450;DHT22;9354;50.194;7.690;2023-12-29T01:42:31;8.90;99.90
18450;DHT22;9354;50.194;7.690;2023-12-29T01:44:59;8.90;99.90
18450;DHT22;9354;50.194;7.690;2023-12-29T01:47:29;8.90;99.90
18450;DHT22;9354;50.194;7.690;2023-12-29T01:49:56;9.00;99.90
18450;DHT22;9354;50.194;7.690;2023-12-29T01:52:24;8.90;99.90
18450;DHT22;9354;50.194;7.690;2023-12-29T01:54:51;9.00;99.90
18450;DHT22;9354;50.194;7.690;2023-12-29T01:57:20;8.90;99.90
18450;DHT22;9354;50.194;7.690;2023-12-29T01:59:48;9.00;99.90
18450;DHT22;9354;50.194;7.690;2023-12-29T02:02:16;8.90;99.90
18450;DHT22;9354;50.194;7.690;2023-12-29T02:04:46;9.00;99.90
18450;DHT22;9354;50.194;7.690;2023-12-29T02:07:13;9.00;99.90
18450;DHT22;9354;50.194;7.690;2023-12-29T02:09:41;9.00;99.90
18450;DHT22;9354;50.194;7.690;2023-12-29T02:12:08;8.90;99.90
18450;DHT22;9354;50.194;7.690;2023-12-29T02:14:36;9.00;99.90
18450;DHT22;9354;50.194;7.690;2023-12-29T02:17:08;9.00;99.90
18450;DHT22;9354;50.194;7.690;2023-12-29T02:19:39;9.00;99.90
18450;DHT22;9354;50.194;7.690;2023-12-29T02:22:08;9.00;99.90
18450;DHT22;9354;50.194;7.690;2023-12-29T02:24:38;9.00;99.90
18450;DHT22;9354;50.194;7.690;2023-12-29T02:27:18;9.00;99.90
18450;DHT22;9354;50.194;7.690;2023-12-29T02:29:56;9.00;99.90
18450;DHT22;9354;50.194;7.690;2023-12-29T02:32:27;9.00;99.90
18450;DHT22;9354;50.194;7.690;2023-12-29T02:34:57;9.00;99.90
18450;DHT22;9354;50.194;7.690;2023-12-29T02:37:26;9.00;99.90
18450;DHT22;9354;50.194;7.690;2023-12-29T02:39:55;9.00;99.90
18450;DHT22;9354;50.194;7.690;2023-12-29T02:42:24;9.00;99.90
18450;DHT22;9354;50.194;7.690;2023-12-29T02:44:52;9.00;99.90
18450;DHT22;9354;50.194;7.690;2023-12-29T02:47:19;9.10;99.90
18450;DHT22;9354;50.194;7.690;2023-12-29T02:49:47;9.10;99.90
18450;DHT22;9354;50.194;7.690;2023-12-29T02:52:15;9.10;99.90
18450;DHT22;9354;50.194;7.690;2023-12-29T02:54:43;9.10;99.90
18450;DHT22;9354;50.194;7.690;2023-12-29T02:57:10;9.10;99.90
18450;DHT22;9354;50.194;7.690;2023-12-29T02:59:39;9.00;99.90
18450;DHT22;9354;50.194;7.690;2023-12-29T03:02:06;9.00;99.90
18450;DHT22;9354;50.194;7.690;2023-12-29T03:04:34;9.10;99.90
18450;DHT22;9354;50.194;7.690;2023-12-29T03:07:01;9.00;99.90
18450;DHT22;9354;50.194;7.690;2023-12-29T03:09:28;9.00;99.90
18450;DHT22;9354;50.194;7.690;2023-12-29T03:11:56;9.00;99.90
18450;DHT22;9354;50.194;7.690;2023-12-29T03:14:23;9.00;99.90
18450;DHT22;9354;50.194;7.690;2023-12-29T03:16:52;9.00;99.90
18450;DHT22;9354;50.194;7.690;2023-12-29T03:19:19;9.00;99.90
18450;DHT22;9354;50.194;7.690;2023-12-29T03:21:47;9.00;99.90
18450;DHT22;9354;50.194;7.690;2023-12-29T03:24:14;9.00;99.90
18450;DHT22;9354;50.194;7.690;2023-12-29T03:26:41;9.00;99.90
18450;DHT22;9354;50.194;7.690;2023-12-29T03:29:09;9.10;99.90
18450;DHT22;9354;50.194;7.690;2023-12-29T03:31:37;9.00;99.90
18450;DHT22;9354;50.194;7.690;2023-12-29T03:34:06;9.10;99.90
18450;DHT22;9354;50.194;7.690;2023-12-29T03:36:34;9.10;99.90
18450;DHT22;9354;50.194;7.690;2023-12-29T03:39:01;9.10;99.90
18450;DHT22;9354;50.194;7.690;2023-12-29T03:41:29;9.10;99.90
18450;DHT22;9354;50.194;7.690;2023-12-29T03:43:57;9.10;99.90
18450;DHT22;9354;50.194;7.690;2023-12-29T03:46:25;9.10;99.90
18450;DHT22;9354;50.194;7.690;2023-12-29T03:48:52;9.10;99.90
18450;DHT22;9354;50.194;7.690;2023-12-29T03:51:21;9.10;99.90
18450;DHT22;9354;50.194;7.690;2023-12-29T03:53:49;9.10;99.90
18450;DHT22;9354;50.194;7.690;2023-12-29T03:56:18;9.10;99.90
18450;DHT22;9354;50.194;7.690;2023-12-29T03:58:46;9.10;99.90
18450;DHT22;9354;50.194;7.690;2023-12-29T04:01:14;9.10;99.90
18450;DHT22;9354;50.194;7.690;2023-12-29T04:03:42;9.10;99.90
18450;DHT22;9354;50.194;7.690;2023-12-29T04:06:10;9.10;99.90
18450;DHT22;9354;50.194;7.690;2023-12-29T04:08:38;9.10;99.90
18450;DHT22;9354;50.194;7.690;2023-12-29T04:11:06;9.10;99.90
18450;DHT22;9354;50.194;7.690;2023-12-29T04:13:33;9.10;99.90
18450;DHT22;9354;50.194;7.690;2023-12-29T04:16:01;9.10;99.90
18450;DHT22;9354;50.194;7.690;2023-12-29T04:18:28;9.10;99.90
18450;DHT22;9354;50.194;7.690;2023-12-29T04:20:56;9.10;99.90
18450;DHT22;9354;50.194;7.690;2023-12-29T04:23:23;9.10;99.90
18450;DHT22;9354;50.194;7.690;2023-12-29T04:25:53;9.10;99.90
18450;DHT22;9354;50.194;7.690;2023-12-29T04:28:20;9.10;99.90
18450;DHT22;9354;50.194;7.690;2023-12-29T04:30:47;9.10;99.90
18450;DHT22;9354;50.194;7.690;2023-12-29T04:33:15;9.10;99.90
18450;DHT22;9354;50.194;7.690;2023-12-29T04:35:42;9.10;99.90
18450;DHT22;9354;50.194;7.690;2023-12-29T04:38:09;9.10;99.90
18450;DHT22;9354;50.194;7.690;2023-12-29T04:40:37;9.10;99.90
18450;DHT22;9354;50.194;7.690;2023-12-29T04:43:06;9.10;99.90
18450;DHT22;9354;50.194;7.690;2023-12-29T04:45:33;9.00;99.90
18450;DHT22;9354;50.194;7.690;2023-12-29T04:48:01;9.00;99.90
18450;DHT22;9354;50.194;7.690;2023-12-29T04:50:28;9.00;99.90
18450;DHT22;9354;50.194;7.690;2023-12-29T04:52:55;9.00;99.90
18450;DHT22;9354;50.194;7.690;2023-12-29T04:55:23;9.00;99.90
18450;DHT22;9354;50.194;7.690;2023-12-29T04:57:50;9.00;99.90
18450;DHT22;9354;50.194;7.690;2023-12-29T05:00:19;9.00;99.90
18450;DHT22;9354;50.194;7.690;2023-12-29T05:02:46;9.00;99.90
18450;DHT22;9354;50.194;7.690;2023-12-29T05:05:14;9.00;99.90
18450;DHT22;9354;50.194;7.690;2023-12-29T05:07:41;9.00;99.90
18450;DHT22;9354;50.194;7.690;2023-12-29T05:10:09;9.00;99.90
18450;DHT22;9354;50.194;7.690;2023-12-29T05:12:36;9.00;99.90
18450;DHT22;9354;50.194;7.690;2023-12-29T05:15:05;9.00;99.90
18450;DHT22;9354;50.194;7.690;2023-12-29T05:17:34;9.00;99.90
18450;DHT22;9354;50.194;7.690;2023-12-29T05:20:01;9.00;99.90
18450;DHT22;9354;50.194;7.690;2023-12-29T05:22:29;8.90;99.90
18450;DHT22;9354;50.194;7.690;2023-12-29T05:24:56;9.00;99.90
18450;DHT22;9354;50.194;7.690;2023-12-29T05:27:26;9.00;99.90
18450;DHT22;9354;50.194;7.690;2023-12-29T05:29:53;9.00;99.90
18450;DHT22;9354;50.194;7.690;2023-12-29T05:32:21;9.00;99.90
18450;DHT22;9354;50.194;7.690;2023-12-29T05:34:50;9.00;99.90
18450;DHT22;9354;50.194;7.690;2023-12-29T05:37:17;9.00;99.90
18450;DHT22;9354;50.194;7.690;2023-12-29T05:39:45;9.00;99.90
18450;DHT22;9354;50.194;7.690;2023-12-29T05:42:12;9.00;99.90
18450;DHT22;9354;50.194;7.690;2023-12-29T05:44:40;9.00;99.90
18450;DHT22;9354;50.194;7.690;2023-12-29T05:47:07;9.00;99.90
18450;DHT22;9354;50.194;7.690;2023-12-29T05:49:35;9.00;99.90
18450;DHT22;9354;50.194;7.690;2023-12-29T05:52:06;9.00;99.90
18450;DHT22;9354;50.194;7.690;2023-12-29T05:54:34;8.90;99.90
18450;DHT22;9354;50.194;7.690;2023-12-29T05:57:02;8.90;99.90
18450;DHT22;9354;50.194;7.690;2023-12-29T05:59:29;8.90;99.90
18450;DHT22;9354;50.194;7.690;2023-12-29T06:01:57;8.90;99.90
18450;DHT22;9354;50.194;7.690;2023-12-29T06:04:24;8.90;99.90
18450;DHT22;9354;50.194;7.690;2023-12-29T06:06:52;8.90;99.90
18450;DHT22;9354;50.194;7.690;2023-12-29T06:09:20;8.90;99.90
18450;DHT22;9354;50.194;7.690;2023-12-29T06:11:49;8.90;99.90
18450;DHT22;9354;50.194;7.690;2023-12-29T06:14:16;8.90;99.90
18450;DHT22;9354;50.194;7.690;2023-12-29T06:16:44;8.80;99.90
18450;DHT22;9354;50.194;7.690;2023-12-29T06:19:11;8.80;99.90
18450;DHT22;9354;50.194;7.690;2023-12-29T06:21:42;8.80;99.90
18450;DHT22;9354;50.194;7.690;2023-12-29T06:24:10;8.80;99.90
18450;DHT22;9354;50.194;7.690;2023-12-29T06:26:39;8.80;99.90
18450;DHT22;9354;50.194;7.690;2023-12-29T06:29:09;8.80;99.90
18450;DHT22;9354;50.194;7.690;2023-12-29T06:31:40;8.90;99.90
18450;DHT22;9354;50.194;7.690;2023-12-29T06:34:07;8.90;99.90
18450;DHT22;9354;50.194;7.690;2023-12-29T06:36:35;8.90;99.90
18450;DHT22;9354;50.194;7.690;2023-12-29T06:39:02;8.90;99.90
18450;DHT22;9354;50.194;7.690;2023-12-29T06:41:30;8.90;99.90
18450;DHT22;9354;50.194;7.690;2023-12-29T06:43:59;8.90;99.90
18450;DHT22;9354;50.194;7.690;2023-12-29T06:46:26;8.90;99.90
18450;DHT22;9354;50.194;7.690;2023-12-29T06:48:54;9.00;99.90
18450;DHT22;9354;50.194;7.690;2023-12-29T06:51:21;8.90;99.90
18450;DHT22;9354;50.194;7.690;2023-12-29T06:53:49;9.00;99.90
18450;DHT22;9354;50.194;7.690;2023-12-29T06:56:17;9.00;99.90
18450;DHT22;9354;50.194;7.690;2023-12-29T06:58:45;9.10;99.90
18450;DHT22;9354;50.194;7.690;2023-12-29T07:01:14;9.10;99.90
18450;DHT22;9354;50.194;7.690;2023-12-29T07:03:42;9.10;99.90
18450;DHT22;9354;50.194;7.690;2023-12-29T07:06:09;9.10;99.90
18450;DHT22;9354;50.194;7.690;2023-12-29T07:08:37;9.10;99.90
18450;DHT22;9354;50.194;7.690;2023-12-29T07:11:09;9.10;99.90
18450;DHT22;9354;50.194;7.690;2023-12-29T07:13:37;9.20;99.90
18450;DHT22;9354;50.194;7.690;2023-12-29T07:16:04;9.20;99.90
18450;DHT22;9354;50.194;7.690;2023-12-29T07:18:33;9.20;99.90
18450;DHT22;9354;50.194;7.690;2023-12-29T07:21:01;9.20;99.90
18450;DHT22;9354;50.194;7.690;2023-12-29T07:23:28;9.20;99.90
18450;DHT22;9354;50.194;7.690;2023-12-29T07:25:56;9.20;99.90
18450;DHT22;9354;50.194;7.690;2023-12-29T07:28:23;9.20;99.90
18450;DHT22;9354;50.194;7.690;2023-12-29T07:30:51;9.30;99.90
18450;DHT22;9354;50.194;7.690;2023-12-29T07:33:18;9.20;99.90
18450;DHT22;9354;50.194;7.690;2023-12-29T07:35:47;9.20;99.90
18450;DHT22;9354;50.194;7.690;2023-12-29T07:38:15;9.20;99.90
18450;DHT22;9354;50.194;7.690;2023-12-29T07:40:42;9.30;99.90
18450;DHT22;9354;50.194;7.690;2023-12-29T07:43:09;9.30;99.90
18450;DHT22;9354;50.194;7.690;2023-12-29T07:45:37;9.20;99.90
18450;DHT22;9354;50.194;7.690;2023-12-29T07:48:05;9.20;99.90
18450;DHT22;9354;50.194;7.690;2023-12-29T07:50:33;9.20;99.90
18450;DHT22;9354;50.194;7.690;2023-12-29T07:53:02;9.20;99.90
18450;DHT22;9354;50.194;7.690;2023-12-29T07:55:30;9.20;99.90
18450;DHT22;9354;50.194;7.690;2023-12-29T07:57:57;9.30;99.90
18450;DHT22;9354;50.194;7.690;2023-12-29T08:00:25;9.30;99.90
18450;DHT22;9354;50.194;7.690;2023-12-29T08:02:52;9.20;99.90
18450;DHT22;9354;50.194;7.690;2023-12-29T08:05:19;9.30;99.90
18450;DHT22;9354;50.194;7.690;2023-12-29T08:07:46;9.20;99.90
18450;DHT22;9354;50.194;7.690;2023-12-29T08:10:15;9.20;99.90
18450;DHT22;9354;50.194;7.690;2023-12-29T08:12:42;9.20;99.90
18450;DHT22;9354;50.194;7.690;2023-12-29T08:15:10;9.20;99.90
18450;DHT22;9354;50.194;7.690;2023-12-29T08:17:38;9.20;99.90
18450;DHT22;9354;50.194;7.690;2023-12-29T08:20:06;9.20;99.90
18450;DHT22;9354;50.194;7.690;2023-12-29T08:22:37;9.10;99.90
18450;DHT22;9354;50.194;7.690;2023-12-29T08:25:05;9.10;99.90
18450;DHT22;9354;50.194;7.690;2023-12-29T08:27:34;9.10;99.90
18450;DHT22;9354;50.194;7.690;2023-12-29T08:30:01;9.10;99.90
18450;DHT22;9354;50.194;7.690;2023-12-29T08:32:29;9.10;99.90
18450;DHT22;9354;50.194;7.690;2023-12-29T08:34:57;9.10;99.90
18450;DHT22;9354;50.194;7.690;2023-12-29T08:37:24;9.10;99.90
18450;DHT22;9354;50.194;7.690;2023-12-29T08:39:52;9.10;99.90
18450;DHT22;9354;50.194;7.690;2023-12-29T08:42:19;9.20;99.90
18450;DHT22;9354;50.194;7.690;2023-12-29T08:44:48;9.10;99.90
18450;DHT22;9354;50.194;7.690;2023-12-29T08:47:16;9.10;99.90
18450;DHT22;9354;50.194;7.690;2023-12-29T08:49:43;9.10;99.90
18450;DHT22;9354;50.194;7.690;2023-12-29T08:52:14;9.10;99.90
18450;DHT22;9354;50.194;7.690;2023-12-29T08:54:42;9.10;99.90
18450;DHT22;9354;50.194;7.690;2023-12-29T08:57:09;9.10;99.90
18450;DHT22;9354;50.194;7.690;2023-12-29T08:59:36;9.10;99.90
18450;DHT22;9354;50.194;7.690;2023-12-29T09:02:05;9.10;99.90
18450;DHT22;9354;50.194;7.690;2023-12-29T09:04:33;9.20;99.90
18450;DHT22;9354;50.194;7.690;2023-12-29T09:07:01;9.20;99.90
18450;DHT22;9354;50.194;7.690;2023-12-29T09:09:30;9.20;99.90
18450;DHT22;9354;50.194;7.690;2023-12-29T09:11:57;9.20;99.90
18450;DHT22;9354;50.194;7.690;2023-12-29T09:14:25;9.30;99.90
18450;DHT22;9354;50.194;7.690;2023-12-29T09:16:52;9.30;99.90
18450;DHT22;9354;50.194;7.690;2023-12-29T09:19:21;9.30;99.90
18450;DHT22;9354;50.194;7.690;2023-12-29T09:21:49;9.30;99.90
18450;DHT22;9354;50.194;7.690;2023-12-29T09:24:16;9.40;99.90
18450;DHT22;9354;50.194;7.690;2023-12-29T09:26:43;9.40;99.90
18450;DHT22;9354;50.194;7.690;2023-12-29T09:29:11;9.40;99.90
18450;DHT22;9354;50.194;7.690;2023-12-29T09:31:38;9.40;99.90
18450;DHT22;9354;50.194;7.690;2023-12-29T09:34:06;9.40;99.90
18450;DHT22;9354;50.194;7.690;2023-12-29T09:36:34;9.40;99.90
18450;DHT22;9354;50.194;7.690;2023-12-29T09:39:02;9.40;99.90
18450;DHT22;9354;50.194;7.690;2023-12-29T09:41:31;9.40;99.90
18450;DHT22;9354;50.194;7.690;2023-12-29T09:44:01;9.40;99.90
18450;DHT22;9354;50.194;7.690;2023-12-29T09:46:32;9.40;99.90
18450;DHT22;9354;50.194;7.690;2023-12-29T09:49:03;9.40;99.90
18450;DHT22;9354;50.194;7.690;2023-12-29T09:51:31;9.50;99.90
18450;DHT22;9354;50.194;7.690;2023-12-29T09:54:00;9.40;99.90
18450;DHT22;9354;50.194;7.690;2023-12-29T09:56:28;9.50;99.90
18450;DHT22;9354;50.194;7.690;2023-12-29T09:58:56;9.40;99.90
18450;DHT22;9354;50.194;7.690;2023-12-29T10:01:25;9.40;99.90
18450;DHT22;9354;50.194;7.690;2023-12-29T10:03:55;9.40;99.90
18450;DHT22;9354;50.194;7.690;2023-12-29T10:06:24;9.40;99.90
18450;DHT22;9354;50.194;7.690;2023-12-29T10:08:53;9.40;99.90
18450;DHT22;9354;50.194;7.690;2023-12-29T10:11:24;9.40;99.90
18450;DHT22;9354;50.194;7.690;2023-12-29T10:13:54;9.40;99.90
18450;DHT22;9354;50.194;7.690;2023-12-29T10:16:29;9.40;99.90
18450;DHT22;9354;50.194;7.690;2023-12-29T10:19:08;9.30;99.90
18450;DHT22;9354;50.194;7.690;2023-12-29T10:21:42;9.30;99.90
18450;DHT22;9354;50.194;7.690;2023-12-29T10:24:16;9.30;99.90
18450;DHT22;9354;50.194;7.690;2023-12-29T10:26:46;9.20;99.90
18450;DHT22;9354;50.194;7.690;2023-12-29T10:29:14;9.30;99.90
18450;DHT22;9354;50.194;7.690;2023-12-29T10:31:41;9.30;99.90
18450;DHT22;9354;50.194;7.690;2023-12-29T10:34:18;9.30;99.90
18450;DHT22;9354;50.194;7.690;2023-12-29T10:36:48;9.30;99.90
18450;DHT22;9354;50.194;7.690;2023-12-29T10:39:16;9.30;99.90
18450;DHT22;9354;50.194;7.690;2023-12-29T10:41:43;9.40;99.90
18450;DHT22;9354;50.194;7.690;2023-12-29T10:44:12;9.40;99.90
18450;DHT22;9354;50.194;7.690;2023-12-29T10:46:40;9.50;99.90
18450;DHT22;9354;50.194;7.690;2023-12-29T10:49:08;9.70;99.90
18450;DHT22;9354;50.194;7.690;2023-12-29T10:51:36;9.80;99.90
18450;DHT22;9354;50.194;7.690;2023-12-29T10:54:04;9.90;99.90
18450;DHT22;9354;50.194;7.690;2023-12-29T10:56:32;10.10;99.90
18450;DHT22;9354;50.194;7.690;2023-12-29T10:59:01;10.30;99.90
18450;DHT22;9354;50.194;7.690;2023-12-29T11:01:31;10.50;99.90
18450;DHT22;9354;50.194;7.690;2023-12-29T11:04:00;10.70;99.90
18450;DHT22;9354;50.194;7.690;2023-12-29T11:06:28;10.70;99.90
18450;DHT22;9354;50.194;7.690;2023-12-29T11:08:56;10.70;99.90
18450;DHT22;9354;50.194;7.690;2023-12-29T11:11:23;10.70;99.90
18450;DHT22;9354;50.194;7.690;2023-12-29T11:13:53;10.60;99.90
18450;DHT22;9354;50.194;7.690;2023-12-29T11:16:21;10.50;99.90
18450;DHT22;9354;50.194;7.690;2023-12-29T11:18:51;10.40;99.90
18450;DHT22;9354;50.194;7.690;2023-12-29T11:21:21;10.40;99.90
18450;DHT22;9354;50.194;7.690;2023-12-29T11:23:49;10.30;99.90
18450;DHT22;9354;50.194;7.690;2023-12-29T11:26:17;10.30;99.90
18450;DHT22;9354;50.194;7.690;2023-12-29T11:28:46;10.30;99.90
18450;DHT22;9354;50.194;7.690;2023-12-29T11:31:15;10.20;99.90
18450;DHT22;9354;50.194;7.690;2023-12-29T11:33:48;10.20;99.90
18450;DHT22;9354;50.194;7.690;2023-12-29T11:36:22;10.20;99.90
18450;DHT22;9354;50.194;7.690;2023-12-29T11:38:58;10.20;99.90
18450;DHT22;9354;50.194;7.690;2023-12-29T11:41:33;10.20;99.90
18450;DHT22;9354;50.194;7.690;2023-12-29T11:44:03;10.20;99.90
18450;DHT22;9354;50.194;7.690;2023-12-29T11:46:34;10.20;99.90
18450;DHT22;9354;50.194;7.690;2023-12-29T11:49:01;10.20;99.90
18450;DHT22;9354;50.194;7.690;2023-12-29T11:51:35;10.20;99.90
18450;DHT22;9354;50.194;7.690;2023-12-29T11:54:04;10.10;99.90
18450;DHT22;9354;50.194;7.690;2023-12-29T11:56:35;10.10;99.90
18450;DHT22;9354;50.194;7.690;2023-12-29T11:59:15;10.10;99.90
18450;DHT22;9354;50.194;7.690;2023-12-29T12:01:43;10.20;99.90
18450;DHT22;9354;50.194;7.690;2023-12-29T12:04:39;10.20;99.90
18450;DHT22;9354;50.194;7.690;2023-12-29T12:07:13;10.20;99.90
18450;DHT22;9354;50.194;7.690;2023-12-29T12:09:40;10.30;99.90
18450;DHT22;9354;50.194;7.690;2023-12-29T12:12:07;10.30;99.90
18450;DHT22;9354;50.194;7.690;2023-12-29T12:14:48;10.30;99.90
18450;DHT22;9354;50.194;7.690;2023-12-29T12:17:29;10.30;99.90
18450;DHT22;9354;50.194;7.690;2023-12-29T12:19:58;10.40;99.90
18450;DHT22;9354;50.194;7.690;2023-12-29T12:22:29;10.40;99.90
18450;DHT22;9354;50.194;7.690;2023-12-29T12:24:57;10.40;99.90
18450;DHT22;9354;50.194;7.690;2023-12-29T12:27:25;10.40;99.90
18450;DHT22;9354;50.194;7.690;2023-12-29T12:29:57;10.40;99.90
18450;DHT22;9354;50.194;7.690;2023-12-29T12:32:25;10.40;99.90
18450;DHT22;9354;50.194;7.690;2023-12-29T12:34:53;10.30;99.90
18450;DHT22;9354;50.194;7.690;2023-12-29T12:37:22;10.30;99.90
18450;DHT22;9354;50.194;7.690;2023-12-29T12:39:51;10.20;99.90
18450;DHT22;9354;50.194;7.690;2023-12-29T12:42:19;10.20;99.90
18450;DHT22;9354;50.194;7.690;2023-12-29T12:44:49;10.20;99.90
18450;DHT22;9354;50.194;7.690;2023-12-29T12:47:26;10.20;99.90
18450;DHT22;9354;50.194;7.690;2023-12-29T12:49:54;10.20;99.90
18450;DHT22;9354;50.194;7.690;2023-12-29T12:52:22;10.10;99.90
18450;DHT22;9354;50.194;7.690;2023-12-29T12:54:53;10.10;99.90
18450;DHT22;9354;50.194;7.690;2023-12-29T12:57:21;10.10;99.90
18450;DHT22;9354;50.194;7.690;2023-12-29T12:59:50;10.10;99.90
18450;DHT22;9354;50.194;7.690;2023-12-29T13:02:20;10.10;99.90
18450;DHT22;9354;50.194;7.690;2023-12-29T13:04:48;10.00;99.90
18450;DHT22;9354;50.194;7.690;2023-12-29T13:07:17;10.10;99.90
18450;DHT22;9354;50.194;7.690;2023-12-29T13:09:45;10.00;99.90
18450;DHT22;9354;50.194;7.690;2023-12-29T13:12:16;10.00;99.90
18450;DHT22;9354;50.194;7.690;2023-12-29T13:14:44;10.00;99.90
18450;DHT22;9354;50.194;7.690;2023-12-29T13:17:14;10.00;99.90
18450;DHT22;9354;50.194;7.690;2023-12-29T13:19:42;10.00;99.90
18450;DHT22;9354;50.194;7.690;2023-12-29T13:22:11;10.00;99.90
18450;DHT22;9354;50.194;7.690;2023-12-29T13:24:44;9.90;99.90
18450;DHT22;9354;50.194;7.690;2023-12-29T13:27:12;9.90;99.90
18450;DHT22;9354;50.194;7.690;2023-12-29T13:29:42;9.90;99.90
18450;DHT22;9354;50.194;7.690;2023-12-29T13:32:13;9.90;99.90
18450;DHT22;9354;50.194;7.690;2023-12-29T13:34:50;9.90;99.90
18450;DHT22;9354;50.194;7.690;2023-12-29T13:37:24;9.80;99.90
18450;DHT22;9354;50.194;7.690;2023-12-29T13:39:56;9.80;99.90
18450;DHT22;9354;50.194;7.690;2023-12-29T13:42:28;9.80;99.90
18450;DHT22;9354;50.194;7.690;2023-12-29T13:44:59;9.80;99.90
18450;DHT22;9354;50.194;7.690;2023-12-29T13:47:27;9.80;99.90
18450;DHT22;9354;50.194;7.690;2023-12-29T13:49:55;9.80;99.90
18450;DHT22;9354;50.194;7.690;2023-12-29T13:52:22;9.80;99.90
18450;DHT22;9354;50.194;7.690;2023-12-29T13:54:50;9.80;99.90
18450;DHT22;9354;50.194;7.690;2023-12-29T13:57:18;9.90;99.90
18450;DHT22;9354;50.194;7.690;2023-12-29T13:59:45;9.80;99.90
18450;DHT22;9354;50.194;7.690;2023-12-29T14:02:27;9.90;99.90
18450;DHT22;9354;50.194;7.690;2023-12-29T14:05:15;9.90;99.90
18450;DHT22;9354;50.194;7.690;2023-12-29T14:07:45;9.90;99.90
18450;DHT22;9354;50.194;7.690;2023-12-29T14:10:14;9.90;99.90
18450;DHT22;9354;50.194;7.690;2023-12-29T14:12:41;9.90;99.90
18450;DHT22;9354;50.194;7.690;2023-12-29T14:15:09;10.00;99.90
18450;DHT22;9354;50.194;7.690;2023-12-29T14:17:39;10.00;99.90
18450;DHT22;9354;50.194;7.690;2023-12-29T14:20:07;9.90;99.90
18450;DHT22;9354;50.194;7.690;2023-12-29T14:22:35;9.90;99.90
18450;DHT22;9354;50.194;7.690;2023-12-29T14:25:04;9.90;99.90
18450;DHT22;9354;50.194;7.690;2023-12-29T14:27:31;9.90;99.90
18450;DHT22;9354;50.194;7.690;2023-12-29T14:29:59;9.90;99.90
18450;DHT22;9354;50.194;7.690;2023-12-29T14:32:26;9.80;99.90
18450;DHT22;9354;50.194;7.690;2023-12-29T14:34:56;9.80;99.90
18450;DHT22;9354;50.194;7.690;2023-12-29T14:37:23;9.80;99.90
18450;DHT22;9354;50.194;7.690;2023-12-29T14:39:52;9.70;99.90
18450;DHT22;9354;50.194;7.690;2023-12-29T14:42:20;9.70;99.90
18450;DHT22;9354;50.194;7.690;2023-12-29T14:44:48;9.70;99.90
18450;DHT22;9354;50.194;7.690;2023-12-29T14:47:16;9.60;99.90
18450;DHT22;9354;50.194;7.690;2023-12-29T14:49:44;9.60;99.90
18450;DHT22;9354;50.194;7.690;2023-12-29T14:52:13;9.60;99.90
18450;DHT22;9354;50.194;7.690;2023-12-29T14:54:40;9.50;99.90
18450;DHT22;9354;50.194;7.690;2023-12-29T14:57:08;9.50;99.90
18450;DHT22;9354;50.194;7.690;2023-12-29T14:59:35;9.50;99.90
18450;DHT22;9354;50.194;7.690;2023-12-29T15:02:04;9.40;99.90
18450;DHT22;9354;50.194;7.690;2023-12-29T15:04:35;9.40;99.90
18450;DHT22;9354;50.194;7.690;2023-12-29T15:07:03;9.40;99.90
18450;DHT22;9354;50.194;7.690;2023-12-29T15:09:31;9.40;99.90
18450;DHT22;9354;50.194;7.690;2023-12-29T15:12:02;9.40;99.90
18450;DHT22;9354;50.194;7.690;2023-12-29T15:14:30;9.30;99.90
18450;DHT22;9354;50.194;7.690;2023-12-29T15:16:58;9.30;99.90
18450;DHT22;9354;50.194;7.690;2023-12-29T15:19:26;9.30;99.90
18450;DHT22;9354;50.194;7.690;2023-12-29T15:21:53;9.30;99.90
18450;DHT22;9354;50.194;7.690;2023-12-29T15:24:21;9.30;99.90
18450;DHT22;9354;50.194;7.690;2023-12-29T15:26:50;9.30;99.90
18450;DHT22;9354;50.194;7.690;2023-12-29T15:29:18;9.30;99.90
18450;DHT22;9354;50.194;7.690;2023-12-29T15:31:45;9.30;99.90
18450;DHT22;9354;50.194;7.690;2023-12-29T15:34:13;9.30;99.90
18450;DHT22;9354;50.194;7.690;2023-12-29T15:36:40;9.30;99.90
18450;DHT22;9354;50.194;7.690;2023-12-29T15:39:08;9.30;99.90
18450;DHT22;9354;50.194;7.690;2023-12-29T15:41:35;9.20;99.90
18450;DHT22;9354;50.194;7.690;2023-12-29T15:44:05;9.30;99.90
18450;DHT22;9354;50.194;7.690;2023-12-29T15:46:34;9.30;99.90
18450;DHT22;9354;50.194;7.690;2023-12-29T15:49:01;9.30;99.90
18450;DHT22;9354;50.194;7.690;2023-12-29T15:51:30;9.40;99.90
18450;DHT22;9354;50.194;7.690;2023-12-29T15:53:57;9.40;99.90
18450;DHT22;9354;50.194;7.690;2023-12-29T15:56:25;9.40;99.90
18450;DHT22;9354;50.194;7.690;2023-12-29T15:58:52;9.40;99.90
18450;DHT22;9354;50.194;7.690;2023-12-29T16:01:21;9.40;99.90
18450;DHT22;9354;50.194;7.690;2023-12-29T16:03:51;9.40;99.90
18450;DHT22;9354;50.194;7.690;2023-12-29T16:06:19;9.50;99.90
18450;DHT22;9354;50.194;7.690;2023-12-29T16:08:47;9.50;99.90